Airfield :
LOGIN :

Register | Disclaimer

   EN    FR    IT 

 










Legend :    VFR   Marginal VFR   IFR   Intensive IFR   Very Intensive IFR
Visi :
Ceiling :
>= 8 km
>= 3000ft
5 to 8 km
1000 to 3000 ft
1500m to 5 km
500 to 1000 ft
800 to 1500m
200 to 500 ft
< 800m
< 200 ft
Symbols :   Thunderstorms  Fog  Heavy snow  Heavy precipitations  Wind > 20 kt
SIGMETs :     Misc.  Thunderstorms  Icing  Turbulence  Mountain Waves  Volcanic Ashes







- Airport Elevation : 3 ft
- IATA code : DHR


EHKD - Den Helder De Kooy

CURRENT METAR :
  • 151248Z AUTO 23016KT 180V260 9999 FEW016 BKN032 21/17 Q1017 BLU 24015KT 9999 SCT017 BKN300 TEMPO FEW017 SCT040 BKN300

EXPIRED METARs :
  • 151225Z AUTO 22017KT 9999 SCT019 SCT022 21/16 Q1017 WHT 24015KT 9999 SCT017 BKN300 TEMPO FEW017 SCT040 BKN300
  • 151214Z AUTO 22016KT 190V250 9999 SCT019 BKN039 21/16 Q1017 WHT 24015KT 9999 SCT017 BKN300 TEMPO FEW017 SCT040 BKN300
  • 151209Z AUTO 22016KT 190V250 9999 FEW016 SCT038 21/16 Q1017 BLU 24015KT 9999 SCT015 BKN300 TEMPO FEW015 SCT040 BKN300
  • 151155Z AUTO 23015KT 190V260 9999 FEW016 SCT042 21/17 Q1017 BLU 24015KT 9999 SCT015 BKN300 TEMPO FEW015 SCT040 BKN300
  • 151137Z AUTO 23014KT 200V260 9999 OVC040 21/16 Q1017 BLU 24015KT 9999 SCT015 BKN300 TEMPO FEW015 SCT040 BKN300
  • 151135Z AUTO 23014KT 200V260 9999 FEW012 SCT016 OVC041 21/16 Q1017 WHT 24015KT 9999 SCT015 BKN300
  • 151125Z AUTO 24015KT 210V270 9999 BKN013 BKN016 BKN023 21/17 Q1017 GRN 24015KT 9999 SCT014 BKN300
  • 151105Z AUTO 23015KT 190V260 9999 SCT012 BKN015 BKN019 21/18 Q1017 GRN 24015KT 9999 FEW016 BKN300 TEMPO SCT016 BKN300
  • 151055Z AUTO 23015KT 190V250 9999 BKN014 BKN380 22/18 Q1017 GRN 24012KT 9999 FEW020 BKN300 TEMPO SCT020 BKN300
  • 151025Z AUTO 23012KT 190V260 9999 FEW011 SCT013 BKN330 22/18 Q1017 GRN 24012KT 9999 FEW020 BKN300 TEMPO SCT020 BKN300
  • 151018Z AUTO 23013KT 190V260 9999 FEW011 SCT013 BKN016 22/18 Q1017 GRN 24012KT 9999 FEW020 BKN300 TEMPO SCT020 BKN300
  • 151005Z AUTO 22012KT 190V250 9999 FEW017 OVC330 22/17 Q1017 BLU 24012KT 9999 FEW020 BKN300 TEMPO SCT020 BKN300
  • 150955Z AUTO 22011KT 190V250 9999 OVC044 22/17 Q1017 BLU 24012KT 9999 FEW020 SCT045 BKN300

TAF TAF EHKD
Valid from the 15 at 09:00 until the 15 at 21:00 UTC


150808Z 1509/1521 23012G22KT 9999 SCT020
No reported NOTAMs for that airfield.



MET'MAP, your aeronautical weather chart ! - Copyright ORBIFLY December 2007 - Disclaimer

ORBIFLY MET'MAP TEAM :

Programming & Development : Alexandra Zaïnal
Concept & Development : Baudouin d'Aumeries
Co-Development & Prog : Marc-Olivier Méhu
Technical & hardware support : Manuel Goepfert

Contact : metmap@orbifly.com




SOURCES & CREDITS :

   NOAA